createdAt,value
2022-10-23T00:01:45.154Z,15.87
2022-10-23T00:04:14.715Z,15.77
2022-10-23T00:06:43.367Z,15.73
2022-10-23T00:09:17.975Z,15.75
2022-10-23T00:11:48.574Z,15.73
2022-10-23T00:14:17.645Z,15.71
2022-10-23T00:16:45.746Z,15.51
2022-10-23T00:19:13.838Z,15.41
2022-10-23T00:21:41.822Z,15.28
2022-10-23T00:26:42.826Z,15.52
2022-10-23T00:29:12.265Z,15.43
2022-10-23T00:31:40.065Z,15.38
2022-10-23T00:34:09.169Z,15.15
2022-10-23T00:36:38.601Z,15.05
2022-10-23T00:39:07.025Z,15.16
2022-10-23T00:41:34.632Z,15.42
2022-10-23T00:44:07.065Z,15.47
2022-10-23T00:46:37.742Z,15.40
2022-10-23T00:49:06.988Z,15.21
2022-10-23T00:51:39.377Z,15.14
2022-10-23T00:54:24.844Z,15.19
2022-10-23T00:56:55.545Z,15.02
2022-10-23T00:59:23.336Z,15.14
2022-10-23T01:01:52.788Z,15.23
2022-10-23T01:04:21.018Z,15.38
2022-10-23T01:06:59.447Z,15.32
2022-10-23T01:09:32.675Z,15.12
2022-10-23T01:12:10.011Z,15.29
2022-10-23T01:14:43.973Z,15.33
2022-10-23T01:17:19.646Z,15.25
2022-10-23T01:20:02.333Z,15.18
2022-10-23T01:22:47.792Z,15.09
2022-10-23T01:25:24.637Z,15.05
2022-10-23T01:28:01.198Z,15.10
2022-10-23T01:30:30.819Z,15.03
2022-10-23T01:33:05.542Z,15.04
2022-10-23T01:35:38.097Z,15.16
2022-10-23T01:38:12.382Z,15.14
2022-10-23T01:40:47.780Z,15.20
2022-10-23T01:43:20.995Z,15.17
2022-10-23T01:45:52.049Z,15.12
2022-10-23T01:48:25.670Z,15.13
2022-10-23T01:50:56.435Z,15.05
2022-10-23T01:53:27.038Z,15.00
2022-10-23T01:55:56.389Z,15.02
2022-10-23T01:58:27.465Z,15.15
2022-10-23T02:01:00.218Z,15.07
2022-10-23T02:03:30.751Z,14.91
2022-10-23T02:05:58.817Z,14.76
2022-10-23T02:08:26.603Z,14.80
2022-10-23T02:11:03.374Z,14.76
2022-10-23T02:13:39.223Z,14.98
2022-10-23T02:16:16.575Z,15.08
2022-10-23T02:18:52.401Z,15.16
2022-10-23T02:21:28.497Z,15.08
2022-10-23T02:24:00.490Z,15.04
2022-10-23T02:26:35.211Z,14.89
2022-10-23T02:29:10.036Z,15.00
2022-10-23T02:31:37.908Z,14.91
2022-10-23T02:34:05.687Z,14.87
2022-10-23T02:36:33.285Z,14.81
2022-10-23T02:39:00.900Z,14.76
2022-10-23T02:41:40.548Z,14.69
2022-10-23T02:44:24.271Z,14.64
2022-10-23T02:46:58.516Z,14.57
2022-10-23T02:49:32.575Z,14.61
2022-10-23T02:52:09.831Z,14.77
2022-10-23T02:55:04.011Z,14.80
2022-10-23T02:57:35.902Z,14.70
2022-10-23T03:00:09.070Z,14.68
2022-10-23T03:02:40.820Z,14.70
2022-10-23T03:05:12.209Z,14.52
2022-10-23T03:07:40.870Z,14.60
2022-10-23T03:10:10.213Z,14.71
2022-10-23T03:12:38.830Z,14.75
2022-10-23T03:15:09.281Z,14.65
2022-10-23T03:17:36.878Z,14.60
2022-10-23T03:20:05.021Z,14.62
2022-10-23T03:22:32.635Z,14.50
2022-10-23T03:25:00.248Z,14.48
2022-10-23T03:29:56.421Z,14.53
2022-10-23T03:32:25.361Z,14.50
2022-10-23T03:34:52.988Z,14.57
2022-10-23T03:37:20.584Z,14.57
2022-10-23T03:39:48.153Z,14.49
2022-10-23T03:42:15.778Z,14.25
2022-10-23T03:44:43.435Z,14.27
2022-10-23T03:47:11.958Z,14.40
2022-10-23T03:49:41.036Z,14.29
2022-10-23T03:52:09.359Z,14.14
2022-10-23T03:54:36.970Z,14.37
2022-10-23T03:57:04.811Z,14.38
2022-10-23T03:59:32.456Z,14.38
2022-10-23T04:02:00.263Z,14.40
2022-10-23T04:04:28.203Z,14.37
2022-10-23T04:06:57.153Z,14.30
2022-10-23T04:09:24.852Z,14.37
2022-10-23T04:11:52.459Z,14.30
2022-10-23T04:14:20.035Z,14.38
2022-10-23T04:16:47.570Z,14.40
2022-10-23T04:19:17.140Z,14.11
2022-10-23T04:21:44.842Z,14.33
2022-10-23T04:24:14.024Z,14.39
2022-10-23T04:26:41.742Z,14.22
2022-10-23T04:29:09.332Z,14.24
2022-10-23T04:31:36.931Z,14.19
2022-10-23T04:36:37.134Z,14.15
2022-10-23T04:39:04.921Z,14.11
2022-10-23T04:41:33.812Z,13.94
2022-10-23T04:44:01.423Z,13.80
2022-10-23T04:46:29.220Z,13.60
2022-10-23T04:48:56.782Z,14.00
2022-10-23T04:51:24.512Z,13.94
2022-10-23T04:53:52.060Z,13.89
2022-10-23T04:56:19.642Z,13.64
2022-10-23T04:58:48.564Z,13.54
2022-10-23T05:01:16.310Z,13.43
2022-10-23T05:03:44.140Z,13.64
2022-10-23T05:06:11.750Z,13.68
2022-10-23T05:08:39.387Z,13.40
2022-10-23T05:11:07.019Z,13.28
2022-10-23T05:13:34.581Z,13.19
2022-10-23T05:16:04.047Z,13.17
2022-10-23T05:18:35.704Z,13.76
2022-10-23T05:21:07.573Z,14.09
2022-10-23T05:23:37.524Z,14.20
2022-10-23T05:26:06.233Z,14.16
2022-10-23T05:28:33.804Z,14.17
2022-10-23T05:31:04.310Z,14.23
2022-10-23T05:33:32.838Z,14.26
2022-10-23T05:36:01.701Z,14.26
2022-10-23T05:38:31.495Z,14.19
2022-10-23T05:40:59.140Z,14.18
2022-10-23T05:43:27.312Z,14.16
2022-10-23T05:45:54.972Z,14.02
2022-10-23T05:48:34.315Z,13.99
2022-10-23T05:51:06.576Z,13.74
2022-10-23T05:53:36.125Z,13.62
2022-10-23T05:56:08.094Z,13.47
2022-10-23T05:58:36.215Z,13.49
2022-10-23T06:01:07.201Z,13.48
2022-10-23T06:03:36.824Z,13.67
2022-10-23T06:06:05.159Z,13.84
2022-10-23T06:08:33.511Z,13.91
2022-10-23T06:11:07.269Z,13.93
2022-10-23T06:13:35.046Z,14.00
2022-10-23T06:16:09.931Z,14.26
2022-10-23T06:18:39.050Z,14.27
2022-10-23T06:21:07.170Z,14.26
2022-10-23T06:23:36.237Z,14.16
2022-10-23T06:26:04.234Z,13.88
2022-10-23T06:28:32.383Z,13.68
2022-10-23T06:31:00.019Z,13.77
2022-10-23T06:33:27.564Z,13.73
2022-10-23T06:35:58.287Z,13.46
2022-10-23T06:38:25.889Z,13.32
2022-10-23T06:40:54.082Z,13.27
2022-10-23T06:43:21.776Z,13.23
2022-10-23T06:45:49.619Z,13.17
2022-10-23T06:48:17.477Z,13.11
2022-10-23T06:50:45.069Z,13.09
2022-10-23T06:53:14.144Z,13.09
2022-10-23T06:55:41.717Z,13.07
2022-10-23T06:58:10.775Z,13.04
2022-10-23T07:00:38.910Z,13.01
2022-10-23T07:03:08.446Z,13.01
2022-10-23T07:05:36.315Z,13.00
2022-10-23T07:08:06.042Z,13.03
2022-10-23T07:10:35.398Z,13.06
2022-10-23T07:13:03.223Z,13.04
2022-10-23T07:15:31.042Z,13.10
2022-10-23T07:17:58.680Z,13.18
2022-10-23T07:20:26.408Z,13.30
2022-10-23T07:22:55.297Z,13.34
2022-10-23T07:25:23.745Z,13.41
2022-10-23T07:27:55.316Z,13.46
2022-10-23T07:30:24.235Z,13.50
2022-10-23T07:32:52.253Z,13.59
2022-10-23T07:35:19.987Z,13.77
2022-10-23T07:37:48.555Z,14.10
2022-10-23T07:40:17.254Z,14.37
2022-10-23T07:42:44.810Z,14.27
2022-10-23T07:45:13.758Z,14.60
2022-10-23T07:47:41.682Z,14.71
2022-10-23T07:50:10.407Z,14.81
2022-10-23T07:52:37.984Z,14.57
2022-10-23T07:55:06.352Z,14.53
2022-10-23T07:57:33.968Z,14.53
2022-10-23T08:00:01.555Z,14.38
2022-10-23T08:02:30.479Z,14.32
2022-10-23T08:04:58.049Z,14.27
2022-10-23T08:07:25.626Z,14.82
2022-10-23T08:09:53.646Z,14.99
2022-10-23T08:12:21.264Z,14.95
2022-10-23T08:14:48.961Z,14.91
2022-10-23T08:17:16.525Z,14.77
2022-10-23T08:19:47.119Z,14.63
2022-10-23T08:22:14.963Z,14.72
2022-10-23T08:24:42.549Z,14.81
2022-10-23T08:27:10.094Z,14.78
2022-10-23T08:29:37.707Z,14.69
2022-10-23T08:32:05.703Z,14.68
2022-10-23T08:34:33.264Z,14.64
2022-10-23T08:37:02.223Z,14.71
2022-10-23T08:39:29.791Z,15.09
2022-10-23T08:41:57.419Z,15.01
2022-10-23T08:44:31.999Z,14.98
2022-10-23T08:47:06.586Z,15.49
2022-10-23T08:49:48.739Z,15.61
2022-10-23T08:52:24.403Z,15.80
2022-10-23T08:55:03.670Z,15.80
2022-10-23T08:57:40.036Z,15.51
2022-10-23T09:00:14.904Z,15.38
2022-10-23T09:02:45.991Z,15.27
2022-10-23T09:05:18.127Z,15.22
2022-10-23T09:08:00.900Z,15.17
2022-10-23T09:10:58.334Z,15.18
2022-10-23T09:13:45.871Z,15.38
2022-10-23T09:16:20.407Z,15.41
2022-10-23T09:18:50.662Z,15.92
2022-10-23T09:21:18.482Z,16.05
2022-10-23T09:23:47.394Z,16.17
2022-10-23T09:26:16.804Z,16.28
2022-10-23T09:28:48.947Z,16.23
2022-10-23T09:31:17.512Z,16.10
2022-10-23T09:33:55.723Z,15.98
2022-10-23T09:36:24.473Z,16.12
2022-10-23T09:38:55.121Z,15.94
2022-10-23T09:41:25.684Z,16.33
2022-10-23T09:44:04.040Z,16.46
2022-10-23T09:46:39.450Z,16.33
2022-10-23T09:49:08.067Z,16.24
2022-10-23T09:51:35.785Z,16.26
2022-10-23T09:54:05.057Z,16.74
2022-10-23T09:56:35.629Z,16.90
2022-10-23T09:59:06.330Z,17.11
2022-10-23T10:01:36.136Z,16.81
2022-10-23T10:04:03.846Z,16.69
2022-10-23T10:06:33.634Z,16.71
2022-10-23T10:09:06.877Z,16.53
2022-10-23T10:11:38.566Z,16.42
2022-10-23T10:14:28.015Z,16.33
2022-10-23T10:17:01.772Z,16.71
2022-10-23T10:19:40.509Z,16.99
2022-10-23T10:22:19.179Z,17.14
2022-10-23T10:24:57.211Z,17.55
2022-10-23T10:27:42.622Z,17.49
2022-10-23T10:30:16.594Z,17.22
2022-10-23T10:32:51.297Z,17.14
2022-10-23T10:35:38.387Z,17.65
2022-10-23T10:38:21.670Z,17.84
2022-10-23T10:41:15.281Z,17.98
2022-10-23T10:43:52.853Z,17.94
2022-10-23T10:46:31.598Z,17.60
2022-10-23T10:49:08.959Z,17.84
2022-10-23T10:51:48.866Z,18.04
2022-10-23T10:54:44.287Z,17.74
2022-10-23T10:57:26.746Z,17.68
2022-10-23T11:00:03.594Z,17.59
2022-10-23T11:02:38.908Z,17.45
2022-10-23T11:05:19.341Z,17.33
2022-10-23T11:07:55.730Z,17.24
2022-10-23T11:10:23.540Z,17.46
2022-10-23T11:12:52.945Z,17.36
2022-10-23T11:15:26.131Z,17.26
2022-10-23T11:17:57.839Z,17.21
2022-10-23T11:20:39.900Z,17.20
2022-10-23T11:23:31.977Z,17.17
2022-10-23T11:26:16.203Z,17.16
2022-10-23T11:29:03.817Z,17.14
2022-10-23T11:31:39.949Z,17.13
2022-10-23T11:34:35.110Z,17.26
2022-10-23T11:37:04.738Z,17.24
2022-10-23T11:39:34.058Z,17.41
2022-10-23T11:42:14.335Z,17.33
2022-10-23T11:44:45.207Z,17.31
2022-10-23T11:47:36.354Z,17.32
2022-10-23T11:50:15.621Z,17.36
2022-10-23T11:53:13.028Z,17.40
2022-10-23T11:55:57.137Z,17.42
2022-10-23T11:58:31.432Z,17.73
2022-10-23T12:01:05.421Z,17.69
2022-10-23T12:03:41.822Z,17.84
2022-10-23T12:06:23.633Z,17.95
2022-10-23T12:08:55.065Z,18.34
2022-10-23T12:11:28.241Z,18.71
2022-10-23T12:13:56.192Z,18.91
2022-10-23T12:16:35.626Z,18.99
2022-10-23T12:19:18.818Z,18.77
2022-10-23T12:21:47.619Z,18.58
2022-10-23T12:24:31.887Z,18.35
2022-10-23T12:27:09.119Z,18.44
2022-10-23T12:29:53.563Z,18.32
2022-10-23T12:32:34.982Z,18.22
2022-10-23T12:35:34.007Z,18.11
2022-10-23T12:38:14.189Z,18.10
2022-10-23T12:40:42.031Z,18.07
2022-10-23T12:43:24.370Z,18.06
2022-10-23T12:45:52.614Z,18.25
2022-10-23T12:48:23.199Z,18.41
2022-10-23T12:50:52.469Z,18.33
2022-10-23T12:53:21.347Z,18.32
2022-10-23T12:55:52.632Z,18.24
2022-10-23T12:58:21.587Z,18.20
2022-10-23T13:00:54.269Z,18.17
2022-10-23T13:03:26.008Z,18.18
2022-10-23T13:05:55.754Z,18.30
2022-10-23T13:08:24.697Z,18.36
2022-10-23T13:10:52.406Z,18.36
2022-10-23T13:13:24.107Z,18.36
2022-10-23T13:15:51.962Z,18.38
2022-10-23T13:18:19.762Z,18.50
2022-10-23T13:20:59.982Z,18.81
2022-10-23T13:23:32.095Z,19.38
2022-10-23T13:26:01.426Z,19.62
2022-10-23T13:28:33.230Z,19.74
2022-10-23T13:31:23.562Z,19.56
2022-10-23T13:33:53.137Z,19.45
2022-10-23T13:36:24.352Z,19.54
2022-10-23T13:39:03.759Z,19.61
2022-10-23T13:41:37.546Z,19.64
2022-10-23T13:44:05.490Z,19.77
2022-10-23T13:46:33.175Z,19.82
2022-10-23T13:49:00.856Z,19.83
2022-10-23T13:51:32.017Z,19.85
2022-10-23T13:53:59.601Z,19.82
2022-10-23T13:56:28.587Z,19.75
2022-10-23T13:58:56.151Z,19.71
2022-10-23T14:01:27.229Z,19.63
2022-10-23T14:03:55.893Z,19.57
2022-10-23T14:06:23.581Z,19.53
2022-10-23T14:08:52.947Z,19.52
2022-10-23T14:11:21.988Z,19.53
2022-10-23T14:13:49.966Z,19.57
2022-10-23T14:16:20.521Z,19.60
2022-10-23T14:18:48.609Z,19.59
2022-10-23T14:21:19.800Z,19.55
2022-10-23T14:23:48.096Z,19.51
2022-10-23T14:26:19.375Z,19.48
2022-10-23T14:28:47.129Z,19.46
2022-10-23T14:31:15.961Z,19.40
2022-10-23T14:33:44.425Z,19.35
2022-10-23T14:36:12.572Z,19.33
2022-10-23T14:38:40.395Z,19.29
2022-10-23T14:41:12.831Z,19.23
2022-10-23T14:43:42.943Z,19.19
2022-10-23T14:46:12.615Z,19.17
2022-10-23T14:48:42.376Z,19.16
2022-10-23T14:51:18.807Z,19.12
2022-10-23T14:53:46.831Z,19.09
2022-10-23T14:56:15.209Z,19.09
2022-10-23T14:58:44.137Z,19.10
2022-10-23T15:01:11.890Z,19.06
2022-10-23T15:03:39.621Z,19.04
2022-10-23T15:06:08.729Z,19.07
2022-10-23T15:08:36.941Z,19.09
2022-10-23T15:11:08.916Z,19.37
2022-10-23T15:13:39.327Z,19.55
2022-10-23T15:16:10.093Z,19.39
2022-10-23T15:21:11.042Z,19.50
2022-10-23T15:23:41.031Z,19.48
2022-10-23T15:26:10.955Z,19.31
2022-10-23T15:28:39.091Z,19.24
2022-10-23T15:31:24.268Z,19.13
2022-10-23T15:33:51.807Z,19.02
2022-10-23T15:36:19.514Z,18.95
2022-10-23T15:38:47.115Z,18.89
2022-10-23T15:41:16.482Z,18.85
2022-10-23T15:43:44.294Z,18.82
2022-10-23T15:46:13.255Z,18.78
2022-10-23T15:48:40.833Z,18.74
2022-10-23T15:51:08.382Z,19.06
2022-10-23T15:53:36.247Z,18.98
2022-10-23T15:56:03.925Z,19.02
2022-10-23T15:58:31.533Z,19.33
2022-10-23T16:01:02.923Z,19.50
2022-10-23T16:03:32.155Z,19.68
2022-10-23T16:05:59.782Z,19.71
2022-10-23T16:08:27.321Z,19.66
2022-10-23T16:10:54.905Z,19.68
2022-10-23T16:13:22.508Z,19.62
2022-10-23T16:15:50.073Z,19.55
2022-10-23T16:18:18.739Z,19.51
2022-10-23T16:20:48.015Z,19.50
2022-10-23T16:23:15.599Z,19.47
2022-10-23T16:25:43.227Z,19.48
2022-10-23T16:28:10.834Z,19.51
2022-10-23T16:30:41.697Z,19.48
2022-10-23T16:33:09.336Z,19.27
2022-10-23T16:35:37.278Z,19.34
2022-10-23T16:38:06.431Z,19.22
2022-10-23T16:40:34.040Z,19.28
2022-10-23T16:43:01.580Z,19.18
2022-10-23T16:45:29.190Z,19.08
2022-10-23T16:47:56.951Z,19.07
2022-10-23T16:50:24.579Z,18.94
2022-10-23T16:52:55.483Z,19.08
2022-10-23T16:55:24.908Z,19.07
2022-10-23T16:57:52.535Z,18.92
2022-10-23T17:00:22.025Z,18.82
2022-10-23T17:02:49.724Z,18.94
2022-10-23T17:05:17.424Z,18.94
2022-10-23T17:07:45.202Z,18.82
2022-10-23T17:10:13.049Z,18.74
2022-10-23T17:12:41.988Z,18.90
2022-10-23T17:15:10.993Z,19.05
2022-10-23T17:17:38.738Z,19.04
2022-10-23T17:20:07.224Z,19.20
2022-10-23T17:22:35.855Z,19.08
2022-10-23T17:25:03.641Z,19.22
2022-10-23T17:27:31.224Z,19.20
2022-10-23T17:30:00.159Z,19.18
2022-10-23T17:32:27.812Z,19.18
2022-10-23T17:34:55.409Z,19.14
2022-10-23T17:37:23.023Z,19.07
2022-10-23T17:39:50.658Z,19.04
2022-10-23T17:42:18.269Z,19.02
2022-10-23T17:44:45.887Z,18.97
2022-10-23T17:47:34.577Z,19.03
2022-10-23T17:50:02.470Z,19.03
2022-10-23T17:52:30.082Z,19.00
2022-10-23T17:54:57.649Z,19.00
2022-10-23T17:57:25.252Z,19.03
2022-10-23T17:59:52.839Z,19.03
2022-10-23T18:02:20.637Z,19.03
2022-10-23T18:04:49.655Z,18.75
2022-10-23T18:07:17.362Z,18.59
2022-10-23T18:09:46.072Z,18.42
2022-10-23T18:12:13.684Z,18.42
2022-10-23T18:14:41.254Z,18.33
2022-10-23T18:17:08.868Z,18.70
2022-10-23T18:19:36.466Z,18.96
2022-10-23T18:22:05.507Z,18.92
2022-10-23T18:24:33.350Z,18.78
2022-10-23T18:27:01.051Z,18.57
2022-10-23T18:29:28.623Z,18.39
2022-10-23T18:31:56.227Z,18.42
2022-10-23T18:34:25.666Z,18.50
2022-10-23T18:36:55.265Z,18.38
2022-10-23T18:39:25.962Z,18.29
2022-10-23T18:41:56.015Z,18.28
2022-10-23T18:44:25.035Z,18.59
2022-10-23T18:46:52.922Z,18.69
2022-10-23T18:49:21.237Z,18.45
2022-10-23T18:51:49.728Z,18.30
2022-10-23T18:54:18.734Z,18.26
2022-10-23T18:56:48.151Z,18.22
2022-10-23T18:59:18.328Z,18.17
2022-10-23T19:01:46.149Z,18.12
2022-10-23T19:04:15.870Z,18.06
2022-10-23T19:06:43.695Z,17.98
2022-10-23T19:09:14.689Z,17.98
2022-10-23T19:11:43.441Z,17.98
2022-10-23T19:14:12.534Z,18.04
2022-10-23T19:16:44.930Z,18.17
2022-10-23T19:19:16.802Z,18.14
2022-10-23T19:21:45.348Z,18.12
2022-10-23T19:24:16.320Z,18.02
2022-10-23T19:26:45.022Z,17.95
2022-10-23T19:29:18.112Z,17.98
2022-10-23T19:31:49.168Z,17.97
2022-10-23T19:34:19.709Z,17.94
2022-10-23T19:36:47.505Z,17.87
2022-10-23T19:39:15.384Z,17.79
2022-10-23T19:41:43.040Z,17.75
2022-10-23T19:44:10.641Z,17.71
2022-10-23T19:46:39.594Z,17.70
2022-10-23T19:49:08.827Z,17.70
2022-10-23T19:51:36.987Z,17.69
2022-10-23T19:54:05.140Z,17.68
2022-10-23T19:56:32.700Z,17.70
2022-10-23T19:59:00.361Z,17.73
2022-10-23T20:01:28.042Z,17.72
2022-10-23T20:03:57.570Z,17.68
2022-10-23T20:06:27.922Z,17.65
2022-10-23T20:08:56.343Z,17.66
2022-10-23T20:11:28.056Z,17.67
2022-10-23T20:13:56.886Z,17.68
2022-10-23T20:16:27.149Z,17.68
2022-10-23T20:18:54.890Z,17.85
2022-10-23T20:21:24.650Z,17.81
2022-10-23T20:23:52.720Z,17.84
2022-10-23T20:26:23.112Z,17.83
2022-10-23T20:28:54.015Z,17.83
2022-10-23T20:31:23.172Z,17.88
2022-10-23T20:33:51.529Z,17.94
2022-10-23T20:36:26.153Z,17.96
2022-10-23T20:38:54.482Z,18.12
2022-10-23T20:41:24.945Z,18.12
2022-10-23T20:43:52.668Z,18.24
2022-10-23T20:46:20.375Z,18.19
2022-10-23T20:48:47.955Z,18.28
2022-10-23T20:51:17.825Z,18.23
2022-10-23T20:53:47.767Z,18.16
2022-10-23T20:56:17.161Z,18.44
2022-10-23T20:58:45.010Z,18.65
2022-10-23T21:01:16.279Z,18.52
2022-10-23T21:03:45.022Z,18.65
2022-10-23T21:06:14.673Z,18.63
2022-10-23T21:08:43.257Z,18.65
2022-10-23T21:11:14.224Z,18.51
2022-10-23T21:13:42.747Z,18.38
2022-10-23T21:16:15.014Z,18.39
2022-10-23T21:18:46.867Z,18.35
2022-10-23T21:21:17.041Z,18.26
2022-10-23T21:23:45.077Z,18.13
2022-10-23T21:26:14.628Z,18.37
2022-10-23T21:31:37.277Z,18.55
2022-10-23T21:34:05.660Z,18.57
2022-10-23T21:36:34.226Z,18.54
2022-10-23T21:39:03.330Z,18.45
2022-10-23T21:41:32.884Z,18.45
2022-10-23T21:44:02.227Z,18.43
2022-10-23T21:46:33.721Z,18.48
2022-10-23T21:49:02.725Z,18.53
2022-10-23T21:51:42.447Z,18.52
2022-10-23T21:54:17.199Z,18.47
2022-10-23T21:56:47.422Z,18.52
2022-10-23T21:59:20.139Z,18.57
2022-10-23T22:01:54.109Z,18.58
2022-10-23T22:04:23.491Z,18.61
2022-10-23T22:06:54.188Z,18.64
2022-10-23T22:09:22.966Z,18.65
2022-10-23T22:11:51.048Z,18.65
2022-10-23T22:14:19.460Z,18.65
2022-10-23T22:16:47.650Z,18.69
2022-10-23T22:19:17.025Z,18.69
2022-10-23T22:21:49.079Z,18.69
2022-10-23T22:24:17.861Z,18.71
2022-10-23T22:26:49.211Z,18.67
2022-10-23T22:29:20.537Z,18.64
2022-10-23T22:31:49.825Z,18.67
2022-10-23T22:34:34.786Z,18.66
2022-10-23T22:37:12.758Z,18.63
2022-10-23T22:39:41.774Z,18.66
2022-10-23T22:42:10.092Z,18.67
2022-10-23T22:44:39.643Z,18.71
2022-10-23T22:47:07.442Z,18.64
2022-10-23T22:49:35.118Z,18.68
2022-10-23T22:52:02.706Z,18.65
2022-10-23T22:54:31.763Z,18.62
2022-10-23T22:56:59.645Z,18.66
2022-10-23T22:59:30.064Z,18.68
2022-10-23T23:02:00.544Z,18.61
2022-10-23T23:04:38.955Z,18.59
2022-10-23T23:07:08.375Z,18.61
2022-10-23T23:09:41.184Z,18.63
2022-10-23T23:12:10.336Z,18.60
2022-10-23T23:14:40.894Z,18.59
2022-10-23T23:17:10.390Z,18.59
2022-10-23T23:19:38.186Z,18.62
2022-10-23T23:22:06.015Z,18.51
2022-10-23T23:24:33.965Z,18.45
2022-10-23T23:27:03.012Z,18.43
2022-10-23T23:29:30.627Z,18.47
2022-10-23T23:31:58.299Z,18.52
2022-10-23T23:34:26.143Z,18.48
2022-10-23T23:36:54.136Z,18.48
2022-10-23T23:39:21.810Z,18.43
2022-10-23T23:41:49.413Z,18.45
2022-10-23T23:44:18.420Z,18.48
2022-10-23T23:46:46.125Z,18.57
2022-10-23T23:49:13.792Z,18.60
2022-10-23T23:51:41.998Z,18.66
2022-10-23T23:54:09.690Z,18.61
2022-10-23T23:56:37.289Z,18.48
2022-10-23T23:59:05.236Z,18.42
